createdAt,value
2023-04-08T00:01:54.563Z,34.70
2023-04-08T00:04:21.160Z,33.58
2023-04-08T00:06:47.742Z,56.55
2023-04-08T00:09:14.093Z,78.82
2023-04-08T00:11:40.870Z,75.95
2023-04-08T00:14:07.387Z,74.07
2023-04-08T00:16:33.789Z,46.80
2023-04-08T00:19:00.358Z,50.60
2023-04-08T00:21:27.077Z,101.00
2023-04-08T00:23:53.574Z,50.80
2023-04-08T00:26:20.039Z,30.43
2023-04-08T00:28:46.903Z,55.35
2023-04-08T00:31:13.438Z,36.08
2023-04-08T00:33:39.871Z,74.85
2023-04-08T00:36:06.687Z,73.03
2023-04-08T00:38:33.110Z,95.10
2023-04-08T00:40:59.586Z,89.18
2023-04-08T00:43:26.028Z,55.83
2023-04-08T00:45:52.564Z,87.05
2023-04-08T00:48:19.290Z,78.10
2023-04-08T00:50:47.537Z,51.40
2023-04-08T00:53:18.741Z,63.50
2023-04-08T00:55:45.729Z,86.43
2023-04-08T00:58:13.848Z,75.70
2023-04-08T01:00:58.026Z,60.05
2023-04-08T01:03:42.331Z,46.67
2023-04-08T01:06:32.482Z,63.97
2023-04-08T01:09:01.021Z,74.90
2023-04-08T01:11:31.176Z,87.07
2023-04-08T01:13:58.509Z,92.38
2023-04-08T01:16:26.100Z,26.33
2023-04-08T01:18:53.599Z,99.03
2023-04-08T01:21:22.247Z,61.83
2023-04-08T01:24:04.365Z,53.78
2023-04-08T01:26:31.211Z,92.82
2023-04-08T01:29:00.818Z,50.40
2023-04-08T01:31:27.925Z,80.65
2023-04-08T01:33:56.292Z,94.57
2023-04-08T01:36:24.614Z,48.78
2023-04-08T01:38:51.605Z,91.15
2023-04-08T01:41:21.407Z,75.20
2023-04-08T01:43:49.650Z,102.18
2023-04-08T01:46:17.082Z,62.47
2023-04-08T01:48:44.885Z,36.05
2023-04-08T01:51:12.456Z,86.30
2023-04-08T01:53:39.284Z,97.87
2023-04-08T01:56:09.156Z,68.05
2023-04-08T01:58:42.737Z,74.88
2023-04-08T02:01:16.081Z,105.70
2023-04-08T02:03:44.220Z,52.58
2023-04-08T02:06:10.949Z,76.87
2023-04-08T02:08:37.421Z,57.00
2023-04-08T02:11:04.166Z,63.65
2023-04-08T02:13:31.649Z,67.97
2023-04-08T02:16:06.332Z,79.85
2023-04-08T02:18:37.310Z,48.43
2023-04-08T02:21:11.445Z,53.00
2023-04-08T02:23:40.478Z,43.63
2023-04-08T02:26:14.421Z,106.03
2023-04-08T02:28:42.200Z,32.50
2023-04-08T02:31:13.557Z,55.50
2023-04-08T02:33:41.372Z,74.45
2023-04-08T02:36:08.719Z,44.60
2023-04-08T02:38:35.343Z,37.97
2023-04-08T02:41:01.889Z,80.82
2023-04-08T02:43:32.284Z,78.83
2023-04-08T02:46:03.046Z,61.38
2023-04-08T02:48:31.048Z,96.25
2023-04-08T02:50:57.502Z,34.80
2023-04-08T02:53:24.706Z,34.15
2023-04-08T02:55:51.168Z,32.73
2023-04-08T02:58:17.543Z,33.00
2023-04-08T03:00:43.962Z,28.58
2023-04-08T03:03:10.377Z,25.63
2023-04-08T03:05:37.011Z,27.45
2023-04-08T03:08:03.483Z,23.70
2023-04-08T03:10:30.979Z,31.17
2023-04-08T03:12:57.338Z,42.35
2023-04-08T03:15:23.757Z,59.95
2023-04-08T03:17:50.241Z,40.42
2023-04-08T03:20:16.724Z,43.37
2023-04-08T03:22:43.083Z,41.85
2023-04-08T03:25:09.779Z,48.55
2023-04-08T03:27:36.219Z,34.92
2023-04-08T03:30:02.631Z,27.05
2023-04-08T03:32:29.281Z,43.00
2023-04-08T03:34:55.830Z,54.45
2023-04-08T03:37:22.529Z,26.70
2023-04-08T03:39:49.006Z,49.67
2023-04-08T03:42:15.428Z,39.05
2023-04-08T03:44:41.834Z,42.87
2023-04-08T03:47:08.475Z,34.60
2023-04-08T03:49:34.800Z,37.42
2023-04-08T03:52:01.186Z,22.10
2023-04-08T03:54:27.558Z,57.25
2023-04-08T03:56:54.131Z,22.90
2023-04-08T03:59:20.622Z,46.70
2023-04-08T04:01:47.569Z,56.67
2023-04-08T04:04:14.564Z,34.88
2023-04-08T04:06:41.085Z,45.22
2023-04-08T04:09:07.422Z,28.70
2023-04-08T04:11:36.830Z,47.80
2023-04-08T04:14:03.701Z,38.83
2023-04-08T04:16:32.697Z,73.93
2023-04-08T04:18:59.673Z,41.85
2023-04-08T04:21:27.066Z,25.30
2023-04-08T04:23:53.482Z,25.33
2023-04-08T04:26:19.967Z,20.02
2023-04-08T04:28:46.550Z,23.35
2023-04-08T04:31:21.786Z,29.98
2023-04-08T04:33:48.896Z,23.20
2023-04-08T04:36:15.714Z,26.73
2023-04-08T04:38:43.030Z,18.75
2023-04-08T04:41:09.413Z,16.17
2023-04-08T04:43:35.791Z,18.70
2023-04-08T04:46:03.827Z,15.23
2023-04-08T04:48:30.420Z,16.40
2023-04-08T04:50:57.986Z,14.45
2023-04-08T04:53:24.514Z,20.20
2023-04-08T04:55:51.365Z,17.60
2023-04-08T04:58:18.526Z,15.10
2023-04-08T05:00:48.882Z,16.25
2023-04-08T05:03:15.424Z,22.40
2023-04-08T05:05:41.876Z,18.42
2023-04-08T05:08:08.251Z,28.58
2023-04-08T05:10:34.635Z,15.30
2023-04-08T05:13:01.148Z,15.07
2023-04-08T05:15:27.622Z,14.80
2023-04-08T05:17:54.060Z,14.32
2023-04-08T05:20:20.466Z,11.98
2023-04-08T05:22:46.964Z,23.17
2023-04-08T05:25:13.406Z,21.17
2023-04-08T05:27:40.527Z,18.55
2023-04-08T05:30:08.606Z,18.63
2023-04-08T05:32:35.130Z,17.75
2023-04-08T05:35:04.896Z,18.17
2023-04-08T05:37:31.277Z,16.42
2023-04-08T05:39:57.655Z,14.07
2023-04-08T05:42:24.081Z,11.15
2023-04-08T05:44:50.463Z,12.60
2023-04-08T05:47:16.801Z,11.77
2023-04-08T05:49:43.227Z,13.32
2023-04-08T05:52:09.599Z,12.60
2023-04-08T05:54:36.149Z,11.95
2023-04-08T05:57:02.678Z,12.15
2023-04-08T05:59:29.059Z,11.47
2023-04-08T06:01:56.998Z,11.27
2023-04-08T06:04:23.945Z,10.75
2023-04-08T06:06:50.522Z,12.80
2023-04-08T06:09:16.908Z,12.50
2023-04-08T06:11:43.371Z,9.17
2023-04-08T06:14:09.818Z,12.38
2023-04-08T06:16:36.193Z,10.52
2023-04-08T06:19:02.599Z,10.43
2023-04-08T06:21:29.016Z,10.77
2023-04-08T06:23:55.812Z,11.30
2023-04-08T06:26:22.473Z,10.70
2023-04-08T06:28:48.961Z,14.98
2023-04-08T06:31:15.513Z,10.40
2023-04-08T06:33:41.916Z,11.00
2023-04-08T06:36:08.514Z,10.80
2023-04-08T06:38:35.665Z,10.20
2023-04-08T06:41:06.432Z,10.55
2023-04-08T06:43:34.006Z,12.02
2023-04-08T06:46:00.501Z,11.77
2023-04-08T06:48:32.956Z,9.93
2023-04-08T06:51:01.165Z,9.05
2023-04-08T06:53:29.463Z,12.25
2023-04-08T06:55:55.843Z,11.27
2023-04-08T06:58:22.570Z,9.85
2023-04-08T07:00:48.954Z,10.57
2023-04-08T07:03:15.437Z,8.32
2023-04-08T07:05:42.125Z,8.55
2023-04-08T07:08:09.109Z,9.50
2023-04-08T07:10:36.055Z,8.80
2023-04-08T07:13:02.630Z,9.07
2023-04-08T07:15:29.024Z,11.38
2023-04-08T07:17:56.943Z,10.50
2023-04-08T07:20:24.061Z,9.13
2023-04-08T07:22:50.707Z,9.73
2023-04-08T07:25:17.597Z,7.43
2023-04-08T07:27:43.956Z,11.13
2023-04-08T07:30:10.685Z,6.65
2023-04-08T07:32:37.220Z,7.25
2023-04-08T07:35:03.939Z,6.75
2023-04-08T07:37:30.387Z,8.17
2023-04-08T07:39:56.804Z,8.02
2023-04-08T07:42:23.536Z,7.15
2023-04-08T07:44:49.974Z,6.90
2023-04-08T07:47:16.583Z,6.63
2023-04-08T07:49:42.970Z,6.90
2023-04-08T07:52:10.127Z,6.85
2023-04-08T07:54:36.598Z,7.60
2023-04-08T07:57:03.007Z,6.85
2023-04-08T07:59:29.552Z,6.72
2023-04-08T08:01:56.395Z,7.60
2023-04-08T08:04:25.846Z,6.88
2023-04-08T08:06:52.413Z,6.78
2023-04-08T08:09:18.900Z,7.15
2023-04-08T08:11:45.285Z,6.90
2023-04-08T08:14:13.773Z,7.40
2023-04-08T08:16:40.280Z,8.73
2023-04-08T08:19:07.517Z,6.82
2023-04-08T08:21:37.094Z,7.28
2023-04-08T08:24:03.589Z,6.68
2023-04-08T08:26:30.088Z,7.53
2023-04-08T08:28:56.639Z,7.05
2023-04-08T08:31:23.160Z,8.13
2023-04-08T08:33:49.835Z,8.60
2023-04-08T08:36:16.507Z,7.32
2023-04-08T08:38:42.872Z,8.57
2023-04-08T08:41:09.297Z,7.03
2023-04-08T08:43:35.928Z,7.75
2023-04-08T08:46:02.386Z,6.97
2023-04-08T08:48:29.079Z,7.57
2023-04-08T08:50:55.647Z,8.20
2023-04-08T08:53:23.533Z,8.35
2023-04-08T08:56:16.590Z,8.48
2023-04-08T08:58:36.374Z,8.95
2023-04-08T09:01:02.771Z,8.75
2023-04-08T09:03:29.490Z,8.27
2023-04-08T09:05:58.461Z,10.20
2023-04-08T09:08:33.333Z,8.82
2023-04-08T09:11:17.921Z,7.15
2023-04-08T09:13:45.580Z,7.72
2023-04-08T09:16:23.714Z,7.33
2023-04-08T09:18:50.188Z,7.43
2023-04-08T09:21:17.621Z,7.15
2023-04-08T09:23:48.943Z,7.57
2023-04-08T09:26:17.553Z,7.53
2023-04-08T09:28:57.708Z,9.47
2023-04-08T09:31:29.183Z,8.27
2023-04-08T09:34:09.845Z,8.27
2023-04-08T09:36:36.214Z,7.78
2023-04-08T09:39:02.681Z,8.45
2023-04-08T09:41:30.705Z,8.50
2023-04-08T09:43:58.841Z,8.57
2023-04-08T09:46:41.487Z,9.07
2023-04-08T09:49:18.574Z,8.70
2023-04-08T09:52:06.780Z,10.43
2023-04-08T09:54:55.957Z,8.70
2023-04-08T09:57:27.071Z,9.18
2023-04-08T10:00:07.612Z,8.20
2023-04-08T10:02:41.283Z,8.10
2023-04-08T10:05:08.689Z,8.68
2023-04-08T10:07:35.898Z,8.13
2023-04-08T10:10:03.160Z,8.32
2023-04-08T10:12:29.686Z,9.07
2023-04-08T10:15:32.355Z,8.02
2023-04-08T10:18:08.046Z,8.82
2023-04-08T10:20:34.718Z,8.10
2023-04-08T10:23:01.997Z,7.57
2023-04-08T10:25:33.227Z,8.10
2023-04-08T10:28:19.645Z,6.68
2023-04-08T10:30:53.366Z,8.13
2023-04-08T10:33:37.248Z,6.67
2023-04-08T10:36:11.358Z,7.97
2023-04-08T10:38:44.458Z,7.28
2023-04-08T10:41:13.819Z,6.88
2023-04-08T10:43:40.396Z,6.95
2023-04-08T10:46:10.893Z,6.87
2023-04-08T10:48:37.290Z,7.78
2023-04-08T10:51:05.777Z,7.40
2023-04-08T10:53:36.652Z,6.82
2023-04-08T10:56:15.419Z,6.90
2023-04-08T10:58:52.793Z,9.13
2023-04-08T11:01:19.855Z,8.50
2023-04-08T11:03:46.648Z,8.65
2023-04-08T11:06:13.485Z,11.75
2023-04-08T11:08:39.961Z,9.50
2023-04-08T11:11:11.580Z,8.53
2023-04-08T11:13:51.039Z,8.45
2023-04-08T11:16:21.467Z,7.22
2023-04-08T11:18:49.460Z,8.90
2023-04-08T11:21:16.647Z,8.13
2023-04-08T11:23:43.273Z,8.07
2023-04-08T11:26:10.846Z,8.50
2023-04-08T11:28:37.674Z,8.45
2023-04-08T11:31:04.405Z,8.05
2023-04-08T11:33:31.987Z,7.03
2023-04-08T11:36:01.970Z,6.60
2023-04-08T11:38:28.496Z,8.13
2023-04-08T11:40:59.403Z,9.23
2023-04-08T11:43:26.392Z,8.55
2023-04-08T11:45:53.019Z,7.20
2023-04-08T11:48:19.558Z,8.03
2023-04-08T11:50:46.527Z,8.50
2023-04-08T11:53:22.019Z,8.55
2023-04-08T11:55:49.008Z,7.45
2023-04-08T11:58:15.767Z,6.80
2023-04-08T12:00:42.769Z,9.47
2023-04-08T12:03:10.170Z,7.25
2023-04-08T12:05:36.880Z,8.20
2023-04-08T12:08:03.634Z,7.18
2023-04-08T12:10:30.362Z,6.68
2023-04-08T12:12:56.807Z,5.33
2023-04-08T12:15:23.573Z,8.63
2023-04-08T12:17:50.089Z,6.50
2023-04-08T12:20:17.324Z,4.93
2023-04-08T12:22:44.031Z,4.80
2023-04-08T12:25:10.700Z,6.93
2023-04-08T12:27:37.131Z,5.00
2023-04-08T12:30:03.855Z,5.43
2023-04-08T12:32:30.279Z,6.25
2023-04-08T12:34:56.855Z,5.40
2023-04-08T12:37:23.695Z,5.83
2023-04-08T12:39:50.101Z,6.90
2023-04-08T12:42:16.667Z,5.70
2023-04-08T12:44:43.074Z,7.95
2023-04-08T12:47:09.628Z,6.20
2023-04-08T12:49:48.877Z,5.07
2023-04-08T12:52:17.158Z,4.93
2023-04-08T12:54:43.516Z,5.90
2023-04-08T12:57:09.911Z,4.47
2023-04-08T12:59:37.988Z,3.78
2023-04-08T13:02:04.501Z,3.03
2023-04-08T13:04:31.141Z,4.32
2023-04-08T13:06:57.594Z,4.40
2023-04-08T13:09:24.007Z,4.57
2023-04-08T13:11:50.441Z,5.93
2023-04-08T13:14:17.334Z,6.57
2023-04-08T13:16:43.838Z,6.22
2023-04-08T13:19:10.333Z,6.95
2023-04-08T13:21:36.738Z,5.18
2023-04-08T13:24:03.261Z,6.15
2023-04-08T13:26:29.632Z,6.83
2023-04-08T13:28:57.669Z,7.28
2023-04-08T13:31:24.998Z,6.90
2023-04-08T13:33:51.561Z,7.50
2023-04-08T13:36:18.049Z,7.43
2023-04-08T13:38:46.315Z,5.00
2023-04-08T13:41:12.825Z,5.82
2023-04-08T13:43:39.248Z,5.50
2023-04-08T13:46:05.707Z,5.90
2023-04-08T13:48:32.269Z,5.75
2023-04-08T13:50:58.633Z,7.17
2023-04-08T13:53:24.981Z,5.80
2023-04-08T13:55:55.012Z,7.00
2023-04-08T13:58:24.715Z,6.72
2023-04-08T14:00:51.999Z,5.97
2023-04-08T14:03:19.151Z,7.13
2023-04-08T14:05:45.939Z,6.43
2023-04-08T14:08:13.805Z,5.28
2023-04-08T14:10:41.853Z,6.03
2023-04-08T14:13:08.560Z,6.63
2023-04-08T14:15:35.011Z,6.70
2023-04-08T14:18:01.633Z,6.38
2023-04-08T14:20:28.250Z,5.53
2023-04-08T14:22:56.701Z,6.70
2023-04-08T14:25:23.982Z,6.40
2023-04-08T14:27:58.152Z,6.70
2023-04-08T14:30:25.728Z,7.03
2023-04-08T14:32:52.607Z,7.05
2023-04-08T14:35:19.096Z,7.05
2023-04-08T14:37:45.732Z,6.60
2023-04-08T14:40:12.388Z,5.03
2023-04-08T14:42:39.076Z,5.93
2023-04-08T14:45:06.023Z,6.03
2023-04-08T14:47:32.535Z,4.63
2023-04-08T14:49:59.028Z,6.13
2023-04-08T14:52:25.430Z,5.27
2023-04-08T14:54:52.503Z,4.40
2023-04-08T14:57:19.098Z,5.35
2023-04-08T14:59:45.845Z,6.68
2023-04-08T15:02:12.539Z,6.15
2023-04-08T15:04:39.172Z,7.23
2023-04-08T15:07:06.291Z,8.73
2023-04-08T15:09:32.995Z,7.38
2023-04-08T15:11:59.920Z,6.28
2023-04-08T15:14:26.518Z,6.18
2023-04-08T15:16:52.935Z,6.03
2023-04-08T15:19:22.610Z,6.28
2023-04-08T15:21:49.353Z,7.20
2023-04-08T15:24:15.956Z,9.65
2023-04-08T15:26:42.512Z,6.43
2023-04-08T15:29:09.093Z,7.43
2023-04-08T15:31:35.916Z,10.38
2023-04-08T15:34:03.528Z,6.28
2023-04-08T15:36:30.656Z,6.57
2023-04-08T15:38:57.091Z,7.10
2023-04-08T15:41:23.850Z,6.53
2023-04-08T15:43:50.217Z,7.07
2023-04-08T15:46:23.576Z,8.40
2023-04-08T15:48:50.815Z,8.27
2023-04-08T15:51:17.844Z,7.82
2023-04-08T15:53:44.277Z,5.63
2023-04-08T15:56:16.464Z,6.35
2023-04-08T15:58:43.609Z,5.65
2023-04-08T16:01:10.456Z,8.07
2023-04-08T16:03:37.263Z,7.82
2023-04-08T16:06:04.239Z,7.27
2023-04-08T16:08:32.349Z,5.47
2023-04-08T16:11:04.012Z,7.55
2023-04-08T16:13:30.984Z,7.60
2023-04-08T16:15:58.490Z,8.45
2023-04-08T16:18:25.217Z,7.77
2023-04-08T16:20:51.773Z,7.80
2023-04-08T16:23:18.211Z,9.82
2023-04-08T16:25:44.879Z,8.07
2023-04-08T16:28:11.437Z,8.13
2023-04-08T16:30:38.094Z,8.20
2023-04-08T16:33:05.966Z,10.63
2023-04-08T16:35:32.523Z,9.73
2023-04-08T16:37:59.500Z,11.50
2023-04-08T16:40:26.171Z,10.43
2023-04-08T16:42:52.733Z,9.70
2023-04-08T16:45:19.500Z,12.55
2023-04-08T16:47:46.098Z,12.63
2023-04-08T16:50:12.686Z,14.35
2023-04-08T16:52:39.249Z,14.18
2023-04-08T16:55:06.642Z,12.23
2023-04-08T16:57:33.140Z,12.13
2023-04-08T16:59:59.625Z,11.98
2023-04-08T17:02:26.482Z,15.80
2023-04-08T17:04:52.976Z,15.07
2023-04-08T17:07:19.396Z,14.67
2023-04-08T17:09:49.552Z,12.90
2023-04-08T17:12:16.302Z,14.95
2023-04-08T17:14:42.862Z,15.30
2023-04-08T17:17:09.275Z,16.08
2023-04-08T17:19:35.762Z,15.97
2023-04-08T17:22:02.322Z,15.63
2023-04-08T17:24:28.675Z,13.48
2023-04-08T17:26:57.555Z,13.50
2023-04-08T17:29:24.386Z,15.52
2023-04-08T17:31:51.260Z,16.67
2023-04-08T17:34:18.088Z,15.77
2023-04-08T17:36:44.796Z,15.40
2023-04-08T17:39:11.249Z,14.80
2023-04-08T17:41:40.319Z,16.38
2023-04-08T17:44:07.931Z,14.00
2023-04-08T17:46:34.296Z,14.13
2023-04-08T17:49:00.680Z,13.02
2023-04-08T17:51:27.948Z,14.70
2023-04-08T17:53:54.301Z,13.60
2023-04-08T17:56:21.042Z,15.57
2023-04-08T17:58:48.252Z,14.18
2023-04-08T18:01:15.620Z,14.55
2023-04-08T18:03:42.290Z,15.75
2023-04-08T18:06:09.053Z,17.42
2023-04-08T18:08:35.713Z,13.07
2023-04-08T18:11:05.844Z,13.98
2023-04-08T18:13:32.643Z,15.35
2023-04-08T18:15:59.385Z,14.43
2023-04-08T18:18:25.892Z,15.80
2023-04-08T18:20:52.304Z,16.30
2023-04-08T18:23:18.681Z,14.57
2023-04-08T18:25:48.484Z,13.73
2023-04-08T18:28:14.832Z,15.77
2023-04-08T18:30:43.084Z,17.73
2023-04-08T18:33:09.564Z,15.50
2023-04-08T18:35:36.132Z,16.25
2023-04-08T18:38:02.556Z,15.00
2023-04-08T18:40:29.668Z,19.25
2023-04-08T18:42:56.249Z,16.30
2023-04-08T18:45:22.771Z,16.13
2023-04-08T18:47:49.244Z,19.10
2023-04-08T18:50:16.055Z,17.35
2023-04-08T18:52:42.831Z,16.45
2023-04-08T18:55:09.268Z,16.25
2023-04-08T18:57:35.794Z,19.17
2023-04-08T19:00:02.261Z,16.15
2023-04-08T19:02:28.764Z,17.90
2023-04-08T19:04:55.780Z,17.38
2023-04-08T19:07:23.516Z,18.17
2023-04-08T19:09:50.014Z,19.03
2023-04-08T19:12:16.484Z,16.40
2023-04-08T19:14:42.982Z,19.75
2023-04-08T19:17:09.778Z,15.75
2023-04-08T19:19:36.270Z,14.77
2023-04-08T19:22:05.654Z,16.33
2023-04-08T19:24:32.919Z,17.52
2023-04-08T19:26:59.547Z,15.88
2023-04-08T19:29:28.578Z,15.82
2023-04-08T19:31:56.851Z,18.38
2023-04-08T19:34:23.664Z,20.77
2023-04-08T19:36:50.065Z,28.75
2023-04-08T19:39:16.565Z,24.73
2023-04-08T19:41:42.948Z,27.17
2023-04-08T19:44:09.453Z,21.15
2023-04-08T19:46:35.952Z,23.37
2023-04-08T19:49:02.574Z,21.90
2023-04-08T19:51:29.283Z,24.80
2023-04-08T19:53:56.159Z,18.05
2023-04-08T19:56:22.944Z,17.20
2023-04-08T19:58:49.650Z,13.87
2023-04-08T20:01:16.693Z,15.30
2023-04-08T20:03:50.636Z,21.75
2023-04-08T20:06:17.496Z,14.57
2023-04-08T20:08:44.586Z,12.68
2023-04-08T20:11:11.283Z,13.50
2023-04-08T20:13:37.904Z,14.27
2023-04-08T20:16:04.357Z,17.40
2023-04-08T20:18:30.716Z,16.55
2023-04-08T20:20:57.273Z,15.45
2023-04-08T20:23:24.310Z,18.87
2023-04-08T20:25:50.940Z,14.65
2023-04-08T20:28:18.870Z,14.25
2023-04-08T20:30:45.943Z,14.90
2023-04-08T20:33:12.414Z,17.40
2023-04-08T20:35:38.842Z,15.47
2023-04-08T20:38:08.218Z,16.65
2023-04-08T20:40:34.643Z,16.50
2023-04-08T20:43:01.190Z,20.20
2023-04-08T20:45:28.260Z,20.60
2023-04-08T20:47:55.571Z,23.63
2023-04-08T20:50:22.040Z,23.50
2023-04-08T20:52:48.754Z,22.55
2023-04-08T20:55:15.465Z,19.63
2023-04-08T20:57:42.004Z,15.95
2023-04-08T21:00:09.497Z,18.67
2023-04-08T21:02:36.427Z,16.90
2023-04-08T21:05:03.157Z,18.77
2023-04-08T21:07:30.251Z,18.27
2023-04-08T21:09:56.612Z,19.48
2023-04-08T21:12:23.418Z,21.23
2023-04-08T21:14:50.817Z,19.67
2023-04-08T21:17:17.263Z,18.70
2023-04-08T21:19:43.654Z,21.50
2023-04-08T21:22:10.060Z,20.30
2023-04-08T21:24:37.931Z,16.93
2023-04-08T21:27:04.439Z,20.25
2023-04-08T21:29:30.923Z,17.38
2023-04-08T21:31:57.374Z,20.17
2023-04-08T21:34:23.879Z,17.95
2023-04-08T21:36:50.343Z,17.77
2023-04-08T21:39:16.864Z,16.67
2023-04-08T21:41:43.436Z,16.55
2023-04-08T21:44:10.262Z,18.30
2023-04-08T21:46:36.681Z,17.25
2023-04-08T21:49:03.121Z,16.87
2023-04-08T21:51:29.511Z,18.88
2023-04-08T21:53:55.988Z,18.42
2023-04-08T21:56:24.475Z,19.20
2023-04-08T21:58:51.176Z,16.77
2023-04-08T22:01:17.810Z,21.37
2023-04-08T22:03:44.764Z,18.55
2023-04-08T22:06:16.689Z,20.08
2023-04-08T22:08:52.209Z,17.85
2023-04-08T22:11:19.033Z,20.45
2023-04-08T22:13:45.440Z,23.80
2023-04-08T22:16:12.043Z,22.52
2023-04-08T22:18:38.512Z,24.23
2023-04-08T22:21:04.982Z,22.38
2023-04-08T22:23:31.538Z,21.35
2023-04-08T22:25:57.970Z,24.73
2023-04-08T22:28:24.459Z,24.98
2023-04-08T22:30:51.420Z,23.10
2023-04-08T22:33:17.894Z,24.58
2023-04-08T22:35:44.280Z,26.92
2023-04-08T22:38:10.805Z,23.57
2023-04-08T22:40:37.244Z,30.33
2023-04-08T22:43:03.704Z,30.98
2023-04-08T22:45:30.403Z,28.15
2023-04-08T22:47:56.935Z,29.20
2023-04-08T22:50:23.806Z,31.13
2023-04-08T22:52:50.412Z,31.42
2023-04-08T22:55:16.763Z,36.33
2023-04-08T22:57:43.152Z,29.63
2023-04-08T23:00:10.164Z,30.77
2023-04-08T23:02:37.589Z,28.17
2023-04-08T23:05:04.323Z,34.08
2023-04-08T23:07:30.735Z,29.98
2023-04-08T23:09:57.087Z,29.70
2023-04-08T23:12:23.696Z,31.63
2023-04-08T23:14:50.202Z,36.87
2023-04-08T23:17:16.721Z,28.35
2023-04-08T23:19:43.093Z,38.35
2023-04-08T23:22:09.485Z,29.75
2023-04-08T23:24:35.933Z,33.20
2023-04-08T23:27:02.479Z,33.23
2023-04-08T23:29:28.854Z,32.05
2023-04-08T23:31:55.249Z,36.60
2023-04-08T23:34:21.649Z,34.13
2023-04-08T23:36:48.006Z,33.05
2023-04-08T23:39:14.490Z,34.00
2023-04-08T23:41:40.976Z,32.75
2023-04-08T23:44:07.429Z,34.00
2023-04-08T23:46:33.931Z,29.92
2023-04-08T23:49:00.580Z,33.55
2023-04-08T23:51:27.866Z,33.17
2023-04-08T23:53:54.275Z,33.95
2023-04-08T23:56:20.675Z,33.58
2023-04-08T23:58:47.466Z,30.27
